sensor_id;sensor_type;location;lat;lon;timestamp;temperature;humidity
22779;DHT22;11556;51.194;3.800;2022-08-04T00:02:21;22.90;99.90
22779;DHT22;11556;51.194;3.800;2022-08-04T00:04:59;22.80;99.90
22779;DHT22;11556;51.194;3.800;2022-08-04T00:07:42;22.80;99.90
22779;DHT22;11556;51.194;3.800;2022-08-04T00:10:10;22.80;99.90
22779;DHT22;11556;51.194;3.800;2022-08-04T00:12:37;22.70;99.90
22779;DHT22;11556;51.194;3.800;2022-08-04T00:15:09;22.70;99.90
22779;DHT22;11556;51.194;3.800;2022-08-04T00:17:45;22.70;99.90
22779;DHT22;11556;51.194;3.800;2022-08-04T00:20:17;22.70;99.90
22779;DHT22;11556;51.194;3.800;2022-08-04T00:22:45;22.80;99.90
22779;DHT22;11556;51.194;3.800;2022-08-04T00:25:11;22.60;99.90
22779;DHT22;11556;51.194;3.800;2022-08-04T00:27:37;22.50;99.90
22779;DHT22;11556;51.194;3.800;2022-08-04T00:30:04;22.70;99.90
22779;DHT22;11556;51.194;3.800;2022-08-04T00:32:31;22.70;99.90
22779;DHT22;11556;51.194;3.800;2022-08-04T00:34:58;22.70;99.90
22779;DHT22;11556;51.194;3.800;2022-08-04T00:37:25;22.70;99.90
22779;DHT22;11556;51.194;3.800;2022-08-04T00:39:53;22.70;99.90
22779;DHT22;11556;51.194;3.800;2022-08-04T00:42:36;22.60;99.90
22779;DHT22;11556;51.194;3.800;2022-08-04T00:50:27;22.40;99.90
22779;DHT22;11556;51.194;3.800;2022-08-04T00:53:11;22.30;99.90
22779;DHT22;11556;51.194;3.800;2022-08-04T00:56:03;22.30;99.90
22779;DHT22;11556;51.194;3.800;2022-08-04T00:59:03;22.20;99.90
22779;DHT22;11556;51.194;3.800;2022-08-04T01:01:53;22.20;99.90
22779;DHT22;11556;51.194;3.800;2022-08-04T01:04:35;22.30;99.90
22779;DHT22;11556;51.194;3.800;2022-08-04T01:16:09;22.30;99.90
22779;DHT22;11556;51.194;3.800;2022-08-04T01:23:54;22.10;99.90
22779;DHT22;11556;51.194;3.800;2022-08-04T01:29:11;22.20;99.90
22779;DHT22;11556;51.194;3.800;2022-08-04T01:32:02;22.10;99.90
22779;DHT22;11556;51.194;3.800;2022-08-04T01:35:00;22.20;99.90
22779;DHT22;11556;51.194;3.800;2022-08-04T01:37:41;22.30;99.90
22779;DHT22;11556;51.194;3.800;2022-08-04T01:40:12;22.00;99.90
22779;DHT22;11556;51.194;3.800;2022-08-04T01:42:40;22.00;99.90
22779;DHT22;11556;51.194;3.800;2022-08-04T01:45:09;22.30;99.90
22779;DHT22;11556;51.194;3.800;2022-08-04T01:47:39;22.10;99.90
22779;DHT22;11556;51.194;3.800;2022-08-04T01:50:09;22.00;99.90
22779;DHT22;11556;51.194;3.800;2022-08-04T01:52:37;21.80;99.90
22779;DHT22;11556;51.194;3.800;2022-08-04T01:55:06;21.70;99.90
22779;DHT22;11556;51.194;3.800;2022-08-04T01:57:36;21.70;99.90
22779;DHT22;11556;51.194;3.800;2022-08-04T02:00:03;21.70;99.90
22779;DHT22;11556;51.194;3.800;2022-08-04T02:02:29;21.60;99.90
22779;DHT22;11556;51.194;3.800;2022-08-04T02:04:55;21.60;99.90
22779;DHT22;11556;51.194;3.800;2022-08-04T02:20:13;21.60;99.90
22779;DHT22;11556;51.194;3.800;2022-08-04T02:23:06;21.70;99.90
22779;DHT22;11556;51.194;3.800;2022-08-04T02:25:48;21.70;99.90
22779;DHT22;11556;51.194;3.800;2022-08-04T02:28:29;21.70;99.90
22779;DHT22;11556;51.194;3.800;2022-08-04T02:33:36;21.50;99.90
22779;DHT22;11556;51.194;3.800;2022-08-04T02:36:04;21.50;99.90
22779;DHT22;11556;51.194;3.800;2022-08-04T02:38:58;21.70;99.90
22779;DHT22;11556;51.194;3.800;2022-08-04T02:41:26;21.70;99.90
22779;DHT22;11556;51.194;3.800;2022-08-04T02:43:56;21.50;99.90
22779;DHT22;11556;51.194;3.800;2022-08-04T02:46:23;21.40;99.90
22779;DHT22;11556;51.194;3.800;2022-08-04T02:48:50;21.40;99.90
22779;DHT22;11556;51.194;3.800;2022-08-04T02:51:21;21.30;99.90
22779;DHT22;11556;51.194;3.800;2022-08-04T02:53:49;21.20;99.90
22779;DHT22;11556;51.194;3.800;2022-08-04T02:56:18;21.20;99.90
22779;DHT22;11556;51.194;3.800;2022-08-04T02:58:48;21.20;99.90
22779;DHT22;11556;51.194;3.800;2022-08-04T03:01:16;21.10;99.90
22779;DHT22;11556;51.194;3.800;2022-08-04T03:07:04;21.10;99.90
22779;DHT22;11556;51.194;3.800;2022-08-04T03:35:03;20.90;99.90
22779;DHT22;11556;51.194;3.800;2022-08-04T03:51:37;20.50;99.90
22779;DHT22;11556;51.194;3.800;2022-08-04T04:08:41;20.40;99.90
22779;DHT22;11556;51.194;3.800;2022-08-04T04:14:21;20.30;99.90
22779;DHT22;11556;51.194;3.800;2022-08-04T04:28:49;20.40;99.90
22779;DHT22;11556;51.194;3.800;2022-08-04T04:37:55;20.80;99.90
22779;DHT22;11556;51.194;3.800;2022-08-04T04:43:18;21.00;99.90
22779;DHT22;11556;51.194;3.800;2022-08-04T04:48:55;21.00;99.90
22779;DHT22;11556;51.194;3.800;2022-08-04T04:51:32;21.10;99.90
22779;DHT22;11556;51.194;3.800;2022-08-04T04:54:24;21.20;99.90
22779;DHT22;11556;51.194;3.800;2022-08-04T04:57:15;21.20;99.90
22779;DHT22;11556;51.194;3.800;2022-08-04T05:00:05;21.30;99.90
22779;DHT22;11556;51.194;3.800;2022-08-04T05:05:51;21.40;99.90
22779;DHT22;11556;51.194;3.800;2022-08-04T05:18:39;21.90;99.90
22779;DHT22;11556;51.194;3.800;2022-08-04T05:21:36;22.00;99.90
22779;DHT22;11556;51.194;3.800;2022-08-04T05:24:07;22.00;99.90
22779;DHT22;11556;51.194;3.800;2022-08-04T05:26:38;22.00;99.90
22779;DHT22;11556;51.194;3.800;2022-08-04T05:29:08;22.00;99.90
22779;DHT22;11556;51.194;3.800;2022-08-04T05:31:40;22.00;99.90
22779;DHT22;11556;51.194;3.800;2022-08-04T05:34:34;22.10;99.90
22779;DHT22;11556;51.194;3.800;2022-08-04T05:37:08;22.30;99.90
22779;DHT22;11556;51.194;3.800;2022-08-04T05:39:55;22.30;99.90
22779;DHT22;11556;51.194;3.800;2022-08-04T05:42:21;22.40;99.90
22779;DHT22;11556;51.194;3.800;2022-08-04T05:44:47;22.50;99.90
22779;DHT22;11556;51.194;3.800;2022-08-04T05:47:14;22.60;99.90
22779;DHT22;11556;51.194;3.800;2022-08-04T05:49:41;22.80;99.90
22779;DHT22;11556;51.194;3.800;2022-08-04T05:52:09;22.90;99.90
22779;DHT22;11556;51.194;3.800;2022-08-04T05:54:36;22.90;99.90
22779;DHT22;11556;51.194;3.800;2022-08-04T05:57:04;22.90;99.90
22779;DHT22;11556;51.194;3.800;2022-08-04T05:59:33;23.10;99.90
22779;DHT22;11556;51.194;3.800;2022-08-04T06:02:00;23.30;99.90
22779;DHT22;11556;51.194;3.800;2022-08-04T06:04:30;23.40;99.90
22779;DHT22;11556;51.194;3.800;2022-08-04T06:06:57;23.60;99.90
22779;DHT22;11556;51.194;3.800;2022-08-04T06:09:22;24.00;99.90
22779;DHT22;11556;51.194;3.800;2022-08-04T06:11:49;24.20;99.90
22779;DHT22;11556;51.194;3.800;2022-08-04T06:14:17;24.40;99.90
22779;DHT22;11556;51.194;3.800;2022-08-04T06:16:46;24.60;99.90
22779;DHT22;11556;51.194;3.800;2022-08-04T06:19:15;25.10;99.90
22779;DHT22;11556;51.194;3.800;2022-08-04T06:21:46;25.80;99.90
22779;DHT22;11556;51.194;3.800;2022-08-04T06:24:16;26.80;99.90
22779;DHT22;11556;51.194;3.800;2022-08-04T06:26:43;27.30;99.90
22779;DHT22;11556;51.194;3.800;2022-08-04T06:29:11;27.40;99.90
22779;DHT22;11556;51.194;3.800;2022-08-04T06:32:00;27.20;99.90
22779;DHT22;11556;51.194;3.800;2022-08-04T06:34:29;26.90;99.90
22779;DHT22;11556;51.194;3.800;2022-08-04T06:36:55;27.00;99.90
22779;DHT22;11556;51.194;3.800;2022-08-04T06:39:23;26.90;99.90
22779;DHT22;11556;51.194;3.800;2022-08-04T06:41:52;27.10;99.90
22779;DHT22;11556;51.194;3.800;2022-08-04T06:44:18;27.40;99.90
22779;DHT22;11556;51.194;3.800;2022-08-04T06:46:44;27.70;99.90
22779;DHT22;11556;51.194;3.800;2022-08-04T06:49:10;28.00;99.90
22779;DHT22;11556;51.194;3.800;2022-08-04T06:51:38;28.00;99.90
22779;DHT22;11556;51.194;3.800;2022-08-04T06:54:05;27.80;99.90
22779;DHT22;11556;51.194;3.800;2022-08-04T06:56:33;27.70;99.90
22779;DHT22;11556;51.194;3.800;2022-08-04T06:59:01;27.90;99.90
22779;DHT22;11556;51.194;3.800;2022-08-04T07:01:28;28.40;99.90
22779;DHT22;11556;51.194;3.800;2022-08-04T07:03:54;28.90;99.90
22779;DHT22;11556;51.194;3.800;2022-08-04T07:06:21;29.00;99.90
22779;DHT22;11556;51.194;3.800;2022-08-04T07:08:48;29.00;99.90
22779;DHT22;11556;51.194;3.800;2022-08-04T07:11:14;28.90;99.90
22779;DHT22;11556;51.194;3.800;2022-08-04T07:13:41;28.90;99.90
22779;DHT22;11556;51.194;3.800;2022-08-04T07:16:09;28.90;99.90
22779;DHT22;11556;51.194;3.800;2022-08-04T07:18:37;29.00;99.90
22779;DHT22;11556;51.194;3.800;2022-08-04T07:21:03;29.30;99.90
22779;DHT22;11556;51.194;3.800;2022-08-04T07:23:29;29.50;99.90
22779;DHT22;11556;51.194;3.800;2022-08-04T07:25:56;29.40;99.90
22779;DHT22;11556;51.194;3.800;2022-08-04T07:28:27;29.50;99.90
22779;DHT22;11556;51.194;3.800;2022-08-04T07:30:54;29.60;99.90
22779;DHT22;11556;51.194;3.800;2022-08-04T07:33:20;29.60;99.90
22779;DHT22;11556;51.194;3.800;2022-08-04T07:35:52;29.90;99.90
22779;DHT22;11556;51.194;3.800;2022-08-04T07:38:18;30.30;99.90
22779;DHT22;11556;51.194;3.800;2022-08-04T07:40:45;30.90;99.90
22779;DHT22;11556;51.194;3.800;2022-08-04T07:43:11;31.50;97.90
22779;DHT22;11556;51.194;3.800;2022-08-04T07:45:38;32.00;96.50
22779;DHT22;11556;51.194;3.800;2022-08-04T07:48:04;32.40;94.80
22779;DHT22;11556;51.194;3.800;2022-08-04T07:50:32;32.50;93.20
22779;DHT22;11556;51.194;3.800;2022-08-04T07:52:59;32.50;93.00
22779;DHT22;11556;51.194;3.800;2022-08-04T07:55:25;32.30;92.60
22779;DHT22;11556;51.194;3.800;2022-08-04T07:57:52;31.70;93.40
22779;DHT22;11556;51.194;3.800;2022-08-04T08:00:17;31.50;93.80
22779;DHT22;11556;51.194;3.800;2022-08-04T08:02:47;31.30;93.80
22779;DHT22;11556;51.194;3.800;2022-08-04T08:05:14;31.10;94.10
22779;DHT22;11556;51.194;3.800;2022-08-04T08:07:44;31.00;94.70
22779;DHT22;11556;51.194;3.800;2022-08-04T08:10:14;30.80;94.40
22779;DHT22;11556;51.194;3.800;2022-08-04T08:12:41;30.40;94.90
22779;DHT22;11556;51.194;3.800;2022-08-04T08:15:08;30.00;95.60
22779;DHT22;11556;51.194;3.800;2022-08-04T08:17:35;29.60;96.10
22779;DHT22;11556;51.194;3.800;2022-08-04T08:20:01;29.30;96.70
22779;DHT22;11556;51.194;3.800;2022-08-04T08:22:27;29.10;97.20
22779;DHT22;11556;51.194;3.800;2022-08-04T08:24:53;28.80;97.70
22779;DHT22;11556;51.194;3.800;2022-08-04T08:27:19;28.70;98.10
22779;DHT22;11556;51.194;3.800;2022-08-04T08:29:45;28.40;98.90
22779;DHT22;11556;51.194;3.800;2022-08-04T08:32:12;28.20;99.20
22779;DHT22;11556;51.194;3.800;2022-08-04T08:34:39;27.90;99.90
22779;DHT22;11556;51.194;3.800;2022-08-04T08:37:12;27.60;99.90
22779;DHT22;11556;51.194;3.800;2022-08-04T08:42:53;27.20;99.90
22779;DHT22;11556;51.194;3.800;2022-08-04T08:45:47;27.20;99.90
22779;DHT22;11556;51.194;3.800;2022-08-04T09:11:07;27.00;99.90
22779;DHT22;11556;51.194;3.800;2022-08-04T09:13:56;27.20;99.90
22779;DHT22;11556;51.194;3.800;2022-08-04T09:21:52;28.10;99.90
22779;DHT22;11556;51.194;3.800;2022-08-04T09:24:46;28.50;99.90
22779;DHT22;11556;51.194;3.800;2022-08-04T09:27:21;28.80;99.20
22779;DHT22;11556;51.194;3.800;2022-08-04T09:30:04;29.20;98.80
22779;DHT22;11556;51.194;3.800;2022-08-04T09:32:39;30.30;96.40
22779;DHT22;11556;51.194;3.800;2022-08-04T09:40:39;32.20;91.20
22779;DHT22;11556;51.194;3.800;2022-08-04T09:46:01;34.00;78.90
22779;DHT22;11556;51.194;3.800;2022-08-04T09:54:15;33.70;73.80
22779;DHT22;11556;51.194;3.800;2022-08-04T09:59:25;34.10;73.90
22779;DHT22;11556;51.194;3.800;2022-08-04T10:01:56;35.20;69.70
22779;DHT22;11556;51.194;3.800;2022-08-04T10:04:23;35.80;67.10
22779;DHT22;11556;51.194;3.800;2022-08-04T10:12:40;36.80;61.50
22779;DHT22;11556;51.194;3.800;2022-08-04T10:15:19;37.20;58.40
22779;DHT22;11556;51.194;3.800;2022-08-04T10:28:29;35.70;57.80
22779;DHT22;11556;51.194;3.800;2022-08-04T10:30:59;35.00;59.70
22779;DHT22;11556;51.194;3.800;2022-08-04T10:33:29;34.90;60.60
22779;DHT22;11556;51.194;3.800;2022-08-04T10:36:03;34.70;60.80
22779;DHT22;11556;51.194;3.800;2022-08-04T10:38:44;34.00;62.70
22779;DHT22;11556;51.194;3.800;2022-08-04T10:47:00;37.10;56.00
22779;DHT22;11556;51.194;3.800;2022-08-04T10:52:21;36.80;56.40
22779;DHT22;11556;51.194;3.800;2022-08-04T10:54:59;36.60;56.60
22779;DHT22;11556;51.194;3.800;2022-08-04T10:58:05;36.40;56.50
22779;DHT22;11556;51.194;3.800;2022-08-04T11:00:35;36.20;57.80
22779;DHT22;11556;51.194;3.800;2022-08-04T11:10:58;38.50;53.90
22779;DHT22;11556;51.194;3.800;2022-08-04T11:13:39;38.80;54.00
22779;DHT22;11556;51.194;3.800;2022-08-04T11:16:15;39.10;54.00
22779;DHT22;11556;51.194;3.800;2022-08-04T11:19:05;39.40;53.00
22779;DHT22;11556;51.194;3.800;2022-08-04T11:21:34;39.40;52.00
22779;DHT22;11556;51.194;3.800;2022-08-04T11:27:04;38.40;53.10
22779;DHT22;11556;51.194;3.800;2022-08-04T11:32:20;39.60;50.60
22779;DHT22;11556;51.194;3.800;2022-08-04T11:34:53;38.30;52.70
22779;DHT22;11556;51.194;3.800;2022-08-04T11:37:27;38.30;52.60
22779;DHT22;11556;51.194;3.800;2022-08-04T11:40:08;37.70;55.20
22779;DHT22;11556;51.194;3.800;2022-08-04T11:42:38;38.60;52.60
22779;DHT22;11556;51.194;3.800;2022-08-04T11:45:17;39.10;51.30
22779;DHT22;11556;51.194;3.800;2022-08-04T11:48:08;39.20;50.70
22779;DHT22;11556;51.194;3.800;2022-08-04T11:50:38;39.80;49.80
22779;DHT22;11556;51.194;3.800;2022-08-04T11:53:11;39.70;48.60
22779;DHT22;11556;51.194;3.800;2022-08-04T11:55:42;38.60;50.40
22779;DHT22;11556;51.194;3.800;2022-08-04T11:58:08;39.00;50.80
22779;DHT22;11556;51.194;3.800;2022-08-04T12:00:39;39.80;49.00
22779;DHT22;11556;51.194;3.800;2022-08-04T12:03:18;40.50;48.00
22779;DHT22;11556;51.194;3.800;2022-08-04T12:11:42;41.10;48.20
22779;DHT22;11556;51.194;3.800;2022-08-04T12:17:04;39.30;48.30
22779;DHT22;11556;51.194;3.800;2022-08-04T12:19:52;38.90;48.50
22779;DHT22;11556;51.194;3.800;2022-08-04T12:22:23;39.70;49.40
22779;DHT22;11556;51.194;3.800;2022-08-04T12:25:02;38.40;49.80
22779;DHT22;11556;51.194;3.800;2022-08-04T12:27:33;37.10;51.60
22779;DHT22;11556;51.194;3.800;2022-08-04T12:30:01;36.00;53.40
22779;DHT22;11556;51.194;3.800;2022-08-04T12:35:13;38.10;51.90
22779;DHT22;11556;51.194;3.800;2022-08-04T12:38:02;38.00;51.20
22779;DHT22;11556;51.194;3.800;2022-08-04T12:43:23;39.20;50.20
22779;DHT22;11556;51.194;3.800;2022-08-04T12:45:56;40.10;49.20
22779;DHT22;11556;51.194;3.800;2022-08-04T12:48:25;41.10;48.40
22779;DHT22;11556;51.194;3.800;2022-08-04T12:50:53;38.50;50.90
22779;DHT22;11556;51.194;3.800;2022-08-04T12:53:22;36.70;53.80
22779;DHT22;11556;51.194;3.800;2022-08-04T12:55:50;35.70;55.80
22779;DHT22;11556;51.194;3.800;2022-08-04T12:58:23;34.80;57.80
22779;DHT22;11556;51.194;3.800;2022-08-04T13:00:59;33.90;59.50
22779;DHT22;11556;51.194;3.800;2022-08-04T13:03:46;33.50;60.90
22779;DHT22;11556;51.194;3.800;2022-08-04T13:06:14;33.50;60.80
22779;DHT22;11556;51.194;3.800;2022-08-04T13:08:42;33.90;60.60
22779;DHT22;11556;51.194;3.800;2022-08-04T13:11:10;34.30;59.80
22779;DHT22;11556;51.194;3.800;2022-08-04T13:13:37;34.60;58.80
22779;DHT22;11556;51.194;3.800;2022-08-04T13:16:08;34.70;58.60
22779;DHT22;11556;51.194;3.800;2022-08-04T13:18:36;34.60;59.10
22779;DHT22;11556;51.194;3.800;2022-08-04T13:21:24;34.90;59.60
22779;DHT22;11556;51.194;3.800;2022-08-04T13:24:06;35.60;56.90
22779;DHT22;11556;51.194;3.800;2022-08-04T13:26:34;35.80;56.90
22779;DHT22;11556;51.194;3.800;2022-08-04T13:29:05;36.20;56.10
22779;DHT22;11556;51.194;3.800;2022-08-04T13:31:33;36.70;54.70
22779;DHT22;11556;51.194;3.800;2022-08-04T13:34:04;36.50;54.80
22779;DHT22;11556;51.194;3.800;2022-08-04T13:36:33;36.80;55.50
22779;DHT22;11556;51.194;3.800;2022-08-04T13:39:06;36.60;54.30
22779;DHT22;11556;51.194;3.800;2022-08-04T13:41:35;36.40;55.10
22779;DHT22;11556;51.194;3.800;2022-08-04T13:44:04;36.40;54.70
22779;DHT22;11556;51.194;3.800;2022-08-04T13:46:38;36.30;54.60
22779;DHT22;11556;51.194;3.800;2022-08-04T13:49:08;36.50;54.50
22779;DHT22;11556;51.194;3.800;2022-08-04T13:51:34;36.70;54.50
22779;DHT22;11556;51.194;3.800;2022-08-04T13:54:01;37.00;54.00
22779;DHT22;11556;51.194;3.800;2022-08-04T13:56:37;37.30;53.10
22779;DHT22;11556;51.194;3.800;2022-08-04T13:59:07;36.90;53.20
22779;DHT22;11556;51.194;3.800;2022-08-04T14:01:35;36.80;53.70
22779;DHT22;11556;51.194;3.800;2022-08-04T14:04:14;36.80;54.10
22779;DHT22;11556;51.194;3.800;2022-08-04T14:09:19;36.20;54.10
22779;DHT22;11556;51.194;3.800;2022-08-04T14:11:49;35.40;54.70
22779;DHT22;11556;51.194;3.800;2022-08-04T14:14:29;33.80;58.20
22779;DHT22;11556;51.194;3.800;2022-08-04T14:19:24;32.70;61.30
22779;DHT22;11556;51.194;3.800;2022-08-04T14:21:49;32.80;60.60
22779;DHT22;11556;51.194;3.800;2022-08-04T14:24:28;32.90;60.40
22779;DHT22;11556;51.194;3.800;2022-08-04T14:27:00;32.90;60.70
22779;DHT22;11556;51.194;3.800;2022-08-04T14:29:35;32.60;61.40
22779;DHT22;11556;51.194;3.800;2022-08-04T14:32:04;32.50;62.10
22779;DHT22;11556;51.194;3.800;2022-08-04T14:34:30;32.40;61.70
22779;DHT22;11556;51.194;3.800;2022-08-04T14:37:05;32.00;62.50
22779;DHT22;11556;51.194;3.800;2022-08-04T14:39:47;32.50;62.20
22779;DHT22;11556;51.194;3.800;2022-08-04T14:42:13;32.70;60.50
22779;DHT22;11556;51.194;3.800;2022-08-04T14:44:56;32.80;60.90
22779;DHT22;11556;51.194;3.800;2022-08-04T14:47:43;32.80;60.10
22779;DHT22;11556;51.194;3.800;2022-08-04T14:50:10;33.00;60.30
22779;DHT22;11556;51.194;3.800;2022-08-04T14:52:36;33.40;60.40
22779;DHT22;11556;51.194;3.800;2022-08-04T14:55:23;33.80;59.00
22779;DHT22;11556;51.194;3.800;2022-08-04T14:57:50;33.50;58.60
22779;DHT22;11556;51.194;3.800;2022-08-04T15:00:30;32.50;60.80
22779;DHT22;11556;51.194;3.800;2022-08-04T15:03:07;32.60;60.60
22779;DHT22;11556;51.194;3.800;2022-08-04T15:05:39;32.50;60.30
22779;DHT22;11556;51.194;3.800;2022-08-04T15:08:06;32.20;61.50
22779;DHT22;11556;51.194;3.800;2022-08-04T15:10:31;32.40;61.30
22779;DHT22;11556;51.194;3.800;2022-08-04T15:12:57;32.70;63.20
22779;DHT22;11556;51.194;3.800;2022-08-04T15:15:23;33.00;59.80
22779;DHT22;11556;51.194;3.800;2022-08-04T15:17:50;33.30;59.30
22779;DHT22;11556;51.194;3.800;2022-08-04T15:20:17;33.40;58.70
22779;DHT22;11556;51.194;3.800;2022-08-04T15:22:43;32.90;58.80
22779;DHT22;11556;51.194;3.800;2022-08-04T15:25:09;32.50;59.70
22779;DHT22;11556;51.194;3.800;2022-08-04T15:27:37;32.20;61.10
22779;DHT22;11556;51.194;3.800;2022-08-04T15:30:09;32.00;61.30
22779;DHT22;11556;51.194;3.800;2022-08-04T15:32:47;31.60;62.50
22779;DHT22;11556;51.194;3.800;2022-08-04T15:35:19;31.30;63.80
22779;DHT22;11556;51.194;3.800;2022-08-04T15:40:51;30.80;65.10
22779;DHT22;11556;51.194;3.800;2022-08-04T15:43:52;30.30;66.50
22779;DHT22;11556;51.194;3.800;2022-08-04T15:49:18;30.20;68.00
22779;DHT22;11556;51.194;3.800;2022-08-04T15:51:45;30.00;69.00
22779;DHT22;11556;51.194;3.800;2022-08-04T15:56:46;29.20;71.90
22779;DHT22;11556;51.194;3.800;2022-08-04T15:59:12;29.10;72.60
22779;DHT22;11556;51.194;3.800;2022-08-04T16:01:38;29.20;72.50
22779;DHT22;11556;51.194;3.800;2022-08-04T16:04:21;29.20;72.60
22779;DHT22;11556;51.194;3.800;2022-08-04T16:06:47;28.80;73.40
22779;DHT22;11556;51.194;3.800;2022-08-04T16:09:21;28.40;75.20
22779;DHT22;11556;51.194;3.800;2022-08-04T16:11:47;28.10;75.70
22779;DHT22;11556;51.194;3.800;2022-08-04T16:14:13;27.80;77.10
22779;DHT22;11556;51.194;3.800;2022-08-04T16:22:10;27.80;77.30
22779;DHT22;11556;51.194;3.800;2022-08-04T16:24:40;27.80;76.90
22779;DHT22;11556;51.194;3.800;2022-08-04T16:27:09;27.80;76.60
22779;DHT22;11556;51.194;3.800;2022-08-04T16:29:45;27.70;76.90
22779;DHT22;11556;51.194;3.800;2022-08-04T16:32:21;27.70;77.30
22779;DHT22;11556;51.194;3.800;2022-08-04T16:34:50;27.70;76.80
22779;DHT22;11556;51.194;3.800;2022-08-04T16:37:18;27.60;77.30
22779;DHT22;11556;51.194;3.800;2022-08-04T16:39:44;27.50;78.00
22779;DHT22;11556;51.194;3.800;2022-08-04T16:45:13;27.20;79.20
22779;DHT22;11556;51.194;3.800;2022-08-04T16:50:14;27.50;78.60
22779;DHT22;11556;51.194;3.800;2022-08-04T16:53:08;27.60;78.10
22779;DHT22;11556;51.194;3.800;2022-08-04T16:55:35;27.40;78.30
22779;DHT22;11556;51.194;3.800;2022-08-04T16:58:01;27.30;79.20
22779;DHT22;11556;51.194;3.800;2022-08-04T17:00:32;27.10;78.00
22779;DHT22;11556;51.194;3.800;2022-08-04T17:03:01;26.80;78.60
22779;DHT22;11556;51.194;3.800;2022-08-04T17:05:27;26.80;79.60
22779;DHT22;11556;51.194;3.800;2022-08-04T17:07:56;26.90;77.90
22779;DHT22;11556;51.194;3.800;2022-08-04T17:10:41;26.90;77.30
22779;DHT22;11556;51.194;3.800;2022-08-04T17:13:32;26.90;77.20
22779;DHT22;11556;51.194;3.800;2022-08-04T17:16:04;26.80;78.30
22779;DHT22;11556;51.194;3.800;2022-08-04T17:18:32;26.60;79.10
22779;DHT22;11556;51.194;3.800;2022-08-04T17:21:06;26.60;79.50
22779;DHT22;11556;51.194;3.800;2022-08-04T17:23:38;26.60;79.80
22779;DHT22;11556;51.194;3.800;2022-08-04T17:26:18;26.60;80.50
22779;DHT22;11556;51.194;3.800;2022-08-04T17:28:47;26.50;81.20
22779;DHT22;11556;51.194;3.800;2022-08-04T17:31:13;26.30;81.20
22779;DHT22;11556;51.194;3.800;2022-08-04T17:33:42;26.10;81.80
22779;DHT22;11556;51.194;3.800;2022-08-04T17:36:09;26.10;83.50
22779;DHT22;11556;51.194;3.800;2022-08-04T17:38:46;26.10;83.70
22779;DHT22;11556;51.194;3.800;2022-08-04T17:41:14;26.10;82.90
22779;DHT22;11556;51.194;3.800;2022-08-04T17:43:47;26.00;83.60
22779;DHT22;11556;51.194;3.800;2022-08-04T17:54:17;25.80;85.80
22779;DHT22;11556;51.194;3.800;2022-08-04T18:04:37;25.90;84.60
22779;DHT22;11556;51.194;3.800;2022-08-04T18:07:10;25.90;84.20
22779;DHT22;11556;51.194;3.800;2022-08-04T18:09:54;25.90;85.00
22779;DHT22;11556;51.194;3.800;2022-08-04T18:12:28;25.70;86.00
22779;DHT22;11556;51.194;3.800;2022-08-04T18:14:59;25.70;87.30
22779;DHT22;11556;51.194;3.800;2022-08-04T18:17:32;25.70;87.70
22779;DHT22;11556;51.194;3.800;2022-08-04T18:19:59;25.60;89.10
22779;DHT22;11556;51.194;3.800;2022-08-04T18:22:25;25.50;89.80
22779;DHT22;11556;51.194;3.800;2022-08-04T18:24:51;25.60;89.50
22779;DHT22;11556;51.194;3.800;2022-08-04T18:27:19;25.60;89.70
22779;DHT22;11556;51.194;3.800;2022-08-04T18:29:46;25.50;90.20
22779;DHT22;11556;51.194;3.800;2022-08-04T18:32:12;25.50;90.40
22779;DHT22;11556;51.194;3.800;2022-08-04T18:34:37;25.40;90.80
22779;DHT22;11556;51.194;3.800;2022-08-04T18:37:03;25.30;90.90
22779;DHT22;11556;51.194;3.800;2022-08-04T18:39:29;25.30;91.00
22779;DHT22;11556;51.194;3.800;2022-08-04T18:41:55;25.40;90.70
22779;DHT22;11556;51.194;3.800;2022-08-04T18:44:21;25.30;91.00
22779;DHT22;11556;51.194;3.800;2022-08-04T18:46:47;25.30;91.20
22779;DHT22;11556;51.194;3.800;2022-08-04T18:49:13;25.30;90.90
22779;DHT22;11556;51.194;3.800;2022-08-04T18:51:39;25.40;90.80
22779;DHT22;11556;51.194;3.800;2022-08-04T18:54:05;25.40;90.80
22779;DHT22;11556;51.194;3.800;2022-08-04T18:56:31;25.30;91.20
22779;DHT22;11556;51.194;3.800;2022-08-04T18:58:58;25.30;91.20
22779;DHT22;11556;51.194;3.800;2022-08-04T19:01:24;25.40;90.80
22779;DHT22;11556;51.194;3.800;2022-08-04T19:03:50;25.30;91.20
22779;DHT22;11556;51.194;3.800;2022-08-04T19:06:17;25.20;91.50
22779;DHT22;11556;51.194;3.800;2022-08-04T19:08:43;25.20;91.40
22779;DHT22;11556;51.194;3.800;2022-08-04T19:11:09;25.10;90.90
22779;DHT22;11556;51.194;3.800;2022-08-04T19:13:35;25.10;91.30
22779;DHT22;11556;51.194;3.800;2022-08-04T19:16:01;25.00;91.40
22779;DHT22;11556;51.194;3.800;2022-08-04T19:18:27;24.90;91.90
22779;DHT22;11556;51.194;3.800;2022-08-04T19:20:54;24.90;92.00
22779;DHT22;11556;51.194;3.800;2022-08-04T19:23:19;24.80;91.60
22779;DHT22;11556;51.194;3.800;2022-08-04T19:25:46;24.70;91.60
22779;DHT22;11556;51.194;3.800;2022-08-04T19:28:12;24.60;91.90
22779;DHT22;11556;51.194;3.800;2022-08-04T19:30:38;24.50;92.20
22779;DHT22;11556;51.194;3.800;2022-08-04T19:33:03;24.30;92.40
22779;DHT22;11556;51.194;3.800;2022-08-04T19:35:29;24.30;92.60
22779;DHT22;11556;51.194;3.800;2022-08-04T19:37:55;24.40;92.90
22779;DHT22;11556;51.194;3.800;2022-08-04T19:40:21;24.40;92.80
22779;DHT22;11556;51.194;3.800;2022-08-04T19:42:47;24.40;92.60
22779;DHT22;11556;51.194;3.800;2022-08-04T19:45:12;24.40;92.60
22779;DHT22;11556;51.194;3.800;2022-08-04T19:47:38;24.40;92.80
22779;DHT22;11556;51.194;3.800;2022-08-04T19:50:05;24.30;93.10
22779;DHT22;11556;51.194;3.800;2022-08-04T19:52:31;24.30;93.40
22779;DHT22;11556;51.194;3.800;2022-08-04T19:54:57;24.30;93.50
22779;DHT22;11556;51.194;3.800;2022-08-04T19:57:22;24.30;93.60
22779;DHT22;11556;51.194;3.800;2022-08-04T19:59:48;24.20;93.70
22779;DHT22;11556;51.194;3.800;2022-08-04T20:02:13;24.10;93.90
22779;DHT22;11556;51.194;3.800;2022-08-04T20:04:39;24.20;93.50
22779;DHT22;11556;51.194;3.800;2022-08-04T20:07:05;24.10;93.10
22779;DHT22;11556;51.194;3.800;2022-08-04T20:09:30;24.10;92.50
22779;DHT22;11556;51.194;3.800;2022-08-04T20:11:56;24.20;92.10
22779;DHT22;11556;51.194;3.800;2022-08-04T20:14:23;24.20;91.70
22779;DHT22;11556;51.194;3.800;2022-08-04T20:16:49;24.20;92.00
22779;DHT22;11556;51.194;3.800;2022-08-04T20:19:14;24.20;92.20
22779;DHT22;11556;51.194;3.800;2022-08-04T20:21:40;24.20;92.10
22779;DHT22;11556;51.194;3.800;2022-08-04T20:24:06;24.20;92.40
22779;DHT22;11556;51.194;3.800;2022-08-04T20:26:32;24.20;92.60
22779;DHT22;11556;51.194;3.800;2022-08-04T20:28:57;24.20;92.90
22779;DHT22;11556;51.194;3.800;2022-08-04T20:31:23;24.20;93.50
22779;DHT22;11556;51.194;3.800;2022-08-04T20:33:49;24.00;94.10